Time;durP1;ratioP1;P1;durP2;ratioP2;P2;SDS_P1;SDS_P2;PMS_P1;PMS_P2;Temp;Humidity;BMP_temperature;BMP_pressure;BME280_temperature;BME280_humidity;BME280_pressure;Samples;Min_cycle;Max_cycle;Signal;HPM_P1;HPM_P2
2022/07/08 00:08:20;;;;;;;2.35;0.63;;;;;;;;;;21100491;28;20060;-63
2022/07/08 00:18:22;;;;;;;2.70;1.00;;;;;;;;;;21078272;28;20048;-61
2022/07/08 00:28:25;;;;;;;2.78;0.60;;;;;;;;;;21076258;28;20044;-61
2022/07/08 00:38:27;;;;;;;1.63;0.90;;;;;;;;;;21065877;28;20047;-62
2022/07/08 00:48:29;;;;;;;2.58;0.80;;;;;;;;;;21090175;28;20083;-62
2022/07/08 00:58:32;;;;;;;2.70;0.68;;;;;;;;;;21089653;28;20048;-61
2022/07/08 01:08:34;;;;;;;1.85;0.68;;;;;;;;;;21089992;28;20102;-64
2022/07/08 01:18:36;;;;;;;3.10;0.60;;;;;;;;;;21090298;28;20055;-63
2022/07/08 01:28:40;;;;;;;1.50;0.70;;;;;;;;;;21088865;28;20359;-63
2022/07/08 01:38:44;;;;;;;0.98;0.63;;;;;;;;;;21087962;28;20071;-61
2022/07/08 01:48:48;;;;;;;1.45;0.65;;;;;;;;;;21085153;28;20066;-62
2022/07/08 01:58:53;;;;;;;1.85;0.75;;;;;;;;;;21085594;28;20059;-62
2022/07/08 02:08:56;;;;;;;3.05;1.40;;;;;;;;;;21083678;28;20063;-62
2022/07/08 02:18:59;;;;;;;2.35;0.90;;;;;;;;;;21084558;28;20499;-61
2022/07/08 02:29:01;;;;;;;2.13;0.90;;;;;;;;;;21082894;28;20482;-63
2022/07/08 02:39:03;;;;;;;1.85;0.82;;;;;;;;;;21082044;28;20507;-60
2022/07/08 02:49:06;;;;;;;1.80;0.88;;;;;;;;;;21080613;28;20098;-62
2022/07/08 02:59:08;;;;;;;1.95;0.90;;;;;;;;;;21080430;28;20043;-62
2022/07/08 03:09:10;;;;;;;2.38;0.90;;;;;;;;;;21079487;28;20518;-63
2022/07/08 03:19:13;;;;;;;1.35;0.85;;;;;;;;;;21079010;28;20141;-61
2022/07/08 03:29:15;;;;;;;5.78;1.30;;;;;;;;;;21079016;28;20052;-61
2022/07/08 03:39:18;;;;;;;1.98;0.90;;;;;;;;;;21079137;28;20055;-61
2022/07/08 03:49:20;;;;;;;2.50;1.35;;;;;;;;;;21078424;28;20060;-61
2022/07/08 03:59:23;;;;;;;3.05;0.80;;;;;;;;;;21077457;28;20561;-61
2022/07/08 04:09:25;;;;;;;1.65;1.00;;;;;;;;;;21086135;28;20048;-62
2022/07/08 04:19:27;;;;;;;2.08;0.80;;;;;;;;;;21098593;28;20123;-61
2022/07/08 04:29:30;;;;;;;3.60;1.27;;;;;;;;;;21092292;28;20044;-61
2022/07/08 04:39:33;;;;;;;3.92;1.17;;;;;;;;;;21090543;28;20052;-62
2022/07/08 04:49:35;;;;;;;2.80;1.05;;;;;;;;;;21090479;28;20498;-61
2022/07/08 04:59:37;;;;;;;2.08;1.15;;;;;;;;;;21089339;28;20484;-61
2022/07/08 05:09:39;;;;;;;3.13;1.13;;;;;;;;;;21087884;28;20056;-61
2022/07/08 05:19:41;;;;;;;5.07;1.48;;;;;;;;;;21088127;28;20113;-61
2022/07/08 05:29:43;;;;;;;3.40;1.10;;;;;;;;;;21087331;28;20492;-61
2022/07/08 05:39:45;;;;;;;1.58;0.90;;;;;;;;;;21086566;28;20452;-60
2022/07/08 05:49:47;;;;;;;2.00;1.35;;;;;;;;;;21086545;28;20106;-61
2022/07/08 05:59:52;;;;;;;1.67;1.15;;;;;;;;;;21084380;28;20048;-61
2022/07/08 06:09:54;;;;;;;3.53;1.33;;;;;;;;;;21009011;28;20064;-62
2022/07/08 06:19:56;;;;;;;1.92;1.00;;;;;;;;;;20998929;28;20051;-61
2022/07/08 06:29:58;;;;;;;4.47;1.90;;;;;;;;;;20999476;28;20053;-62
2022/07/08 06:40:02;;;;;;;5.47;1.35;;;;;;;;;;20996439;28;20051;-61
2022/07/08 06:50:06;;;;;;;2.88;1.52;;;;;;;;;;20996524;28;20056;-62
2022/07/08 07:00:08;;;;;;;2.80;1.55;;;;;;;;;;20998316;28;20048;-61
2022/07/08 07:10:10;;;;;;;4.22;1.20;;;;;;;;;;21071646;28;20142;-61
2022/07/08 07:20:12;;;;;;;5.88;1.60;;;;;;;;;;21079076;28;20086;-62
2022/07/08 07:30:15;;;;;;;3.38;1.33;;;;;;;;;;21078828;28;20052;-62
2022/07/08 07:40:17;;;;;;;4.45;1.52;;;;;;;;;;21077815;28;20040;-63
2022/07/08 07:50:19;;;;;;;5.85;1.30;;;;;;;;;;21093279;28;20054;-62
2022/07/08 08:00:21;;;;;;;3.88;1.63;;;;;;;;;;21094822;28;20047;-62
2022/07/08 08:10:23;;;;;;;2.08;1.30;;;;;;;;;;21092928;28;20447;-61
2022/07/08 08:20:26;;;;;;;2.45;1.20;;;;;;;;;;21093724;28;20047;-64
2022/07/08 08:30:28;;;;;;;2.42;1.50;;;;;;;;;;21092251;28;20048;-63
2022/07/08 08:40:31;;;;;;;4.20;1.38;;;;;;;;;;21091395;28;20389;-62
2022/07/08 09:00:54;;;;;;;3.72;1.33;;;;;;;;;;21088761;28;20111;-63
2022/07/08 09:10:57;;;;;;;2.97;1.15;;;;;;;;;;21070427;28;20102;-64
2022/07/08 09:21:00;;;;;;;4.65;2.33;;;;;;;;;;21069300;28;20040;-62
2022/07/08 09:31:03;;;;;;;4.75;1.58;;;;;;;;;;21089222;28;20493;-61
2022/07/08 09:41:09;;;;;;;1.90;1.20;;;;;;;;;;21085774;28;20044;-62
2022/07/08 09:51:11;;;;;;;3.38;1.30;;;;;;;;;;21084684;28;20232;-62
2022/07/08 10:01:13;;;;;;;3.33;1.55;;;;;;;;;;21075334;28;20051;-63
2022/07/08 10:11:15;;;;;;;3.13;1.17;;;;;;;;;;21083096;28;20048;-63
2022/07/08 10:21:19;;;;;;;1.88;1.25;;;;;;;;;;21082311;28;20499;-62
2022/07/08 10:31:22;;;;;;;3.45;1.13;;;;;;;;;;21164730;28;20044;-64
2022/07/08 10:41:26;;;;;;;4.25;1.40;;;;;;;;;;21163725;28;20047;-62
2022/07/08 10:51:29;;;;;;;3.78;1.50;;;;;;;;;;21164499;28;20188;-63
2022/07/08 11:01:32;;;;;;;3.55;1.20;;;;;;;;;;21164735;28;20059;-62
2022/07/08 11:11:36;;;;;;;2.75;1.25;;;;;;;;;;21160429;28;20047;-62
2022/07/08 11:21:39;;;;;;;3.15;1.10;;;;;;;;;;21161976;28;20058;-62
2022/07/08 11:31:41;;;;;;;3.60;1.35;;;;;;;;;;21162146;28;20074;-62
2022/07/08 11:41:43;;;;;;;4.50;1.67;;;;;;;;;;21162778;28;20484;-63
2022/07/08 11:51:45;;;;;;;82.50;10.63;;;;;;;;;;21162764;28;20055;-62
2022/07/08 12:01:47;;;;;;;5.30;1.42;;;;;;;;;;21161178;28;20050;-63
2022/07/08 12:11:52;;;;;;;2.30;1.30;;;;;;;;;;21161423;28;20051;-63
2022/07/08 12:21:54;;;;;;;3.08;1.40;;;;;;;;;;21160127;28;20125;-63
2022/07/08 12:31:56;;;;;;;2.13;0.88;;;;;;;;;;21166437;28;20055;-62
2022/07/08 12:42:00;;;;;;;4.25;1.10;;;;;;;;;;21176278;28;20052;-64
2022/07/08 12:52:02;;;;;;;4.93;1.35;;;;;;;;;;21173949;28;20058;-63
2022/07/08 13:02:05;;;;;;;2.67;1.17;;;;;;;;;;21173458;28;20404;-63
2022/07/08 13:12:07;;;;;;;4.03;1.42;;;;;;;;;;21172489;28;20134;-64
2022/07/08 13:22:09;;;;;;;2.42;0.90;;;;;;;;;;21172383;28;20055;-63
2022/07/08 13:32:11;;;;;;;1.90;1.00;;;;;;;;;;21170852;28;20052;-61
2022/07/08 13:42:13;;;;;;;4.47;0.98;;;;;;;;;;21150559;28;20381;-63
2022/07/08 13:52:16;;;;;;;2.60;1.00;;;;;;;;;;21168868;28;20100;-63
2022/07/08 14:02:18;;;;;;;2.17;0.93;;;;;;;;;;21169721;28;20051;-63
2022/07/08 14:12:21;;;;;;;3.95;0.90;;;;;;;;;;21167242;28;20135;-64
2022/07/08 14:22:23;;;;;;;1.45;0.85;;;;;;;;;;21167103;28;20409;-63
2022/07/08 14:32:25;;;;;;;3.90;1.00;;;;;;;;;;21167205;28;20096;-63
2022/07/08 14:42:27;;;;;;;2.47;0.90;;;;;;;;;;21166544;28;20078;-63
2022/07/08 14:52:29;;;;;;;2.60;1.08;;;;;;;;;;21164623;28;20044;-63
2022/07/08 15:02:31;;;;;;;2.15;0.70;;;;;;;;;;21163344;28;20047;-63
2022/07/08 15:12:33;;;;;;;1.92;0.55;;;;;;;;;;21163151;28;20138;-62
2022/07/08 15:22:34;;;;;;;1.83;0.88;;;;;;;;;;21162870;28;20057;-63
2022/07/08 15:32:36;;;;;;;7.40;0.80;;;;;;;;;;21163963;28;20445;-63
2022/07/08 15:42:39;;;;;;;4.05;1.40;;;;;;;;;;21163528;28;20043;-63
2022/07/08 15:52:40;;;;;;;2.17;0.98;;;;;;;;;;21161944;28;20102;-62
2022/07/08 16:02:43;;;;;;;3.13;0.82;;;;;;;;;;21162070;28;20522;-63
2022/07/08 16:12:44;;;;;;;1.75;0.80;;;;;;;;;;21176088;28;20555;-62
2022/07/08 16:22:46;;;;;;;1.70;0.80;;;;;;;;;;21176996;28;20055;-62
2022/07/08 16:32:48;;;;;;;1.80;1.05;;;;;;;;;;21178758;28;20051;-63
2022/07/08 16:42:50;;;;;;;1.45;0.93;;;;;;;;;;21174820;28;20048;-62
2022/07/08 16:52:52;;;;;;;2.72;1.00;;;;;;;;;;21174509;28;20066;-64
2022/07/08 17:02:53;;;;;;;1.25;0.70;;;;;;;;;;21173493;28;20083;-63
2022/07/08 17:12:55;;;;;;;3.17;0.77;;;;;;;;;;21172350;28;20055;-62
2022/07/08 17:22:57;;;;;;;2.08;0.90;;;;;;;;;;21171631;28;20047;-62
2022/07/08 17:33:00;;;;;;;0.75;0.70;;;;;;;;;;21171523;28;20108;-62
2022/07/08 17:43:02;;;;;;;1.35;0.70;;;;;;;;;;21171001;28;20043;-64
2022/07/08 17:53:05;;;;;;;4.80;1.00;;;;;;;;;;21169635;28;20055;-62
2022/07/08 18:03:07;;;;;;;5.32;1.58;;;;;;;;;;21169411;28;20048;-62
2022/07/08 18:13:09;;;;;;;3.30;1.17;;;;;;;;;;21168068;28;20054;-64
2022/07/08 18:23:11;;;;;;;1.90;0.80;;;;;;;;;;21166625;28;20124;-63
2022/07/08 18:33:13;;;;;;;1.95;1.20;;;;;;;;;;21166951;28;20050;-63
2022/07/08 18:43:15;;;;;;;2.92;1.15;;;;;;;;;;21165601;28;20100;-64
2022/07/08 18:53:17;;;;;;;2.10;0.70;;;;;;;;;;21164752;28;20044;-63
2022/07/08 19:03:19;;;;;;;1.83;1.00;;;;;;;;;;21163710;28;20052;-63
2022/07/08 19:13:21;;;;;;;3.03;1.35;;;;;;;;;;21162974;28;20055;-64
2022/07/08 19:23:23;;;;;;;6.72;3.88;;;;;;;;;;21167154;28;20055;-63
2022/07/08 19:33:25;;;;;;;5.10;3.05;;;;;;;;;;21167083;28;20113;-63
2022/07/08 19:43:27;;;;;;;6.93;3.78;;;;;;;;;;21176227;28;20127;-62
2022/07/08 19:53:29;;;;;;;18.25;6.40;;;;;;;;;;21180082;28;20131;-64
2022/07/08 20:03:32;;;;;;;8.75;5.97;;;;;;;;;;21160538;28;20133;-63
2022/07/08 20:13:34;;;;;;;16.67;10.38;;;;;;;;;;21177529;28;20044;-62
2022/07/08 20:23:36;;;;;;;16.60;8.45;;;;;;;;;;21177007;28;20046;-63
2022/07/08 20:33:39;;;;;;;9.90;5.32;;;;;;;;;;21176231;28;20143;-63
2022/07/08 20:43:42;;;;;;;16.20;9.27;;;;;;;;;;21175368;28;20142;-63
2022/07/08 20:53:45;;;;;;;10.73;6.03;;;;;;;;;;21174476;28;20047;-63
2022/07/08 21:03:47;;;;;;;9.02;4.97;;;;;;;;;;21173794;28;20047;-63
2022/07/08 21:13:50;;;;;;;13.20;5.43;;;;;;;;;;21173152;28;20048;-62
2022/07/08 21:23:52;;;;;;;15.82;6.80;;;;;;;;;;21171931;28;20126;-63
2022/07/08 21:33:54;;;;;;;11.70;6.78;;;;;;;;;;21171525;28;20051;-63
2022/07/08 21:43:56;;;;;;;13.60;6.57;;;;;;;;;;21170781;28;20395;-63
2022/07/08 21:53:58;;;;;;;9.52;4.13;;;;;;;;;;21170522;28;20090;-63
2022/07/08 22:04:00;;;;;;;7.03;2.33;;;;;;;;;;21137061;28;20055;-62
2022/07/08 22:14:01;;;;;;;5.95;2.90;;;;;;;;;;21084811;28;20048;-62
2022/07/08 22:24:06;;;;;;;7.60;2.63;;;;;;;;;;21083403;28;20522;-63
2022/07/08 22:34:08;;;;;;;4.18;2.45;;;;;;;;;;21083900;28;20094;-62
2022/07/08 22:44:10;;;;;;;7.38;3.60;;;;;;;;;;21082666;28;20119;-63
2022/07/08 22:54:12;;;;;;;6.60;2.92;;;;;;;;;;21081006;28;20055;-61
2022/07/08 23:04:14;;;;;;;6.47;4.05;;;;;;;;;;21079001;28;20044;-63
2022/07/08 23:14:16;;;;;;;8.93;3.17;;;;;;;;;;21078819;28;20136;-62
2022/07/08 23:24:18;;;;;;;6.88;3.25;;;;;;;;;;21079652;28;20054;-62
2022/07/08 23:34:21;;;;;;;3.90;2.50;;;;;;;;;;21078920;28;20084;-63
2022/07/08 23:44:23;;;;;;;2.00;1.40;;;;;;;;;;21079419;28;20044;-63
2022/07/08 23:54:25;;;;;;;3.80;1.15;;;;;;;;;;21079614;28;20059;-62
